createdAt,value
2022-08-19T00:04:52.060Z,33.6
2022-08-19T00:10:15.008Z,33.5
2022-08-19T00:16:01.471Z,33.5
2022-08-19T00:21:43.576Z,33.4
2022-08-19T00:27:42.655Z,33.4
2022-08-19T00:33:08.331Z,33.4
2022-08-19T00:38:53.722Z,33.3
2022-08-19T00:44:17.894Z,33.3
2022-08-19T00:49:23.041Z,33.3
2022-08-19T00:55:09.220Z,33.3
2022-08-19T01:01:28.232Z,33.3
2022-08-19T01:07:09.996Z,33.3
2022-08-19T01:12:58.406Z,33.3
2022-08-19T01:18:53.650Z,33.2
2022-08-19T01:24:46.656Z,33.1
2022-08-19T01:31:08.111Z,33.1
2022-08-19T01:37:04.844Z,33.1
2022-08-19T01:43:03.087Z,33.1
2022-08-19T01:49:09.160Z,33.1
2022-08-19T01:55:00.868Z,33.1
2022-08-19T02:00:20.812Z,33
2022-08-19T02:06:03.338Z,33
2022-08-19T02:11:57.330Z,33
2022-08-19T02:17:40.892Z,32.9
2022-08-19T02:23:29.927Z,32.9
2022-08-19T02:29:08.379Z,32.9
2022-08-19T02:34:46.505Z,32.9
2022-08-19T02:40:48.564Z,32.8
2022-08-19T02:47:04.826Z,32.8
2022-08-19T02:52:54.521Z,32.8
2022-08-19T02:58:41.364Z,32.8
2022-08-19T03:04:06.791Z,32.7
2022-08-19T03:10:19.279Z,32.7
2022-08-19T03:15:55.079Z,32.7
2022-08-19T03:21:22.243Z,32.6
2022-08-19T03:27:22.125Z,32.6
2022-08-19T03:34:13.869Z,32.6
2022-08-19T03:39:45.653Z,32.4
2022-08-19T03:46:18.843Z,31.9
2022-08-19T03:52:04.251Z,31
2022-08-19T03:57:48.457Z,30.5
2022-08-19T04:03:50.345Z,30.2
2022-08-19T04:09:35.147Z,30.1
2022-08-19T04:15:27.855Z,30
2022-08-19T04:20:56.259Z,30
2022-08-19T04:26:25.718Z,29.9
2022-08-19T04:32:08.872Z,29.9
2022-08-19T04:38:25.116Z,29.9
2022-08-19T04:44:04.458Z,29.9
2022-08-19T04:51:15.141Z,29.8
2022-08-19T04:57:00.057Z,29.8
2022-08-19T05:02:24.474Z,29.8
2022-08-19T05:08:07.668Z,29.8
2022-08-19T05:14:17.382Z,29.8
2022-08-19T05:20:16.780Z,29.8
2022-08-19T05:26:25.337Z,29.8
2022-08-19T05:32:14.769Z,29.8
2022-08-19T05:38:00.878Z,29.8
2022-08-19T05:43:44.551Z,29.8
2022-08-19T05:49:27.770Z,29.8
2022-08-19T05:55:10.713Z,29.8
2022-08-19T06:00:48.760Z,29.8
2022-08-19T06:06:41.441Z,29.9
2022-08-19T06:12:45.387Z,29.9
2022-08-19T06:18:42.131Z,29.9
2022-08-19T06:24:47.422Z,29.9
2022-08-19T06:30:48.689Z,29.9
2022-08-19T06:36:26.979Z,29.8
2022-08-19T06:42:09.140Z,29.8
2022-08-19T06:48:21.663Z,29.9
2022-08-19T06:54:37.669Z,29.8
2022-08-19T07:00:34.116Z,29.8
2022-08-19T07:07:00.486Z,29.8
2022-08-19T07:13:17.006Z,29.9
2022-08-19T07:19:32.268Z,29.9
2022-08-19T07:25:52.782Z,29.9
2022-08-19T07:32:11.540Z,29.9
2022-08-19T07:37:54.959Z,29.9
2022-08-19T07:43:36.573Z,29.9
2022-08-19T07:49:52.110Z,29.9
2022-08-19T07:56:12.838Z,29.9
2022-08-19T08:01:58.369Z,29.9
2022-08-19T08:07:47.971Z,29.9
2022-08-19T08:14:51.158Z,48.8
2022-08-19T08:21:27.638Z,48.5
2022-08-19T08:27:14.036Z,44.5
2022-08-19T08:33:28.426Z,40.9
2022-08-19T08:39:17.508Z,38.6
2022-08-19T08:45:25.153Z,50.7
2022-08-19T08:51:21.650Z,49.2
2022-08-19T08:57:26.688Z,46.9
2022-08-19T09:03:17.337Z,43.8
2022-08-19T09:09:46.433Z,52.4
2022-08-19T09:16:45.934Z,48.3
2022-08-19T09:22:58.303Z,46.1
2022-08-19T09:29:39.591Z,51.4
2022-08-19T09:36:09.350Z,50
2022-08-19T09:42:03.853Z,46.4
2022-08-19T09:48:05.858Z,52.5
2022-08-19T09:54:05.131Z,50.1
2022-08-19T09:59:58.317Z,46.3
2022-08-19T10:06:17.262Z,53.6
2022-08-19T10:13:24.545Z,49.8
2022-08-19T10:20:11.879Z,50.4
2022-08-19T10:25:59.961Z,50.6
2022-08-19T10:32:33.913Z,50.7
2022-08-19T10:39:30.629Z,50.9
2022-08-19T10:45:11.320Z,51.2
2022-08-19T10:51:04.055Z,51.3
2022-08-19T10:57:40.839Z,51.4
2022-08-19T11:03:38.497Z,51.6
2022-08-19T11:09:50.993Z,51.7
2022-08-19T11:15:27.427Z,51.8
2022-08-19T11:21:09.498Z,51.8
2022-08-19T11:26:56.602Z,51.9
2022-08-19T11:32:35.816Z,51.8
2022-08-19T11:38:18.877Z,51.8
2022-08-19T11:43:56.673Z,51.7
2022-08-19T11:49:46.684Z,51.7
2022-08-19T11:55:28.353Z,51.8
2022-08-19T12:01:16.014Z,51.6
2022-08-19T12:06:58.157Z,51.5
2022-08-19T12:12:43.813Z,51.5
2022-08-19T12:18:21.853Z,51.5
2022-08-19T12:24:01.204Z,51.4
2022-08-19T12:29:58.900Z,51.4
2022-08-19T12:35:38.315Z,51.3
2022-08-19T12:41:21.808Z,51
2022-08-19T12:47:14.604Z,50.8
2022-08-19T12:54:12.413Z,50.7
2022-08-19T12:59:57.311Z,50.6
2022-08-19T13:05:24.833Z,50.4
2022-08-19T13:11:06.884Z,48.6
2022-08-19T13:16:56.225Z,50.2
2022-08-19T13:22:46.142Z,46
2022-08-19T13:28:32.702Z,42.5
2022-08-19T13:34:22.893Z,40.3
2022-08-19T13:40:05.555Z,38.9
2022-08-19T13:45:56.517Z,47.9
2022-08-19T13:51:39.973Z,48.3
2022-08-19T13:57:30.903Z,44.9
2022-08-19T14:03:09.627Z,41.6
2022-08-19T14:08:47.126Z,39.1
2022-08-19T14:14:32.762Z,37.6
2022-08-19T14:20:17.653Z,36.6
2022-08-19T14:26:03.616Z,35.8
2022-08-19T14:31:47.262Z,35.1
2022-08-19T14:37:30.904Z,34.5
2022-08-19T14:43:19.695Z,34
2022-08-19T14:49:09.743Z,33.6
2022-08-19T14:54:46.880Z,33.1
2022-08-19T15:00:47.656Z,32.8
2022-08-19T15:06:45.805Z,32.4
2022-08-19T15:12:38.461Z,32.1
2022-08-19T15:18:35.660Z,31.9
2022-08-19T15:24:02.128Z,31.6
2022-08-19T15:29:40.416Z,31.4
2022-08-19T15:35:29.283Z,31.3
2022-08-19T15:41:10.385Z,31.1
2022-08-19T15:46:50.127Z,30.9
2022-08-19T15:52:36.408Z,30.8
2022-08-19T15:59:01.178Z,30.8
2022-08-19T16:05:20.685Z,30.7
2022-08-19T16:11:39.272Z,30.6
2022-08-19T16:17:23.064Z,30.6
2022-08-19T16:23:04.941Z,30.5
2022-08-19T16:28:57.710Z,30.4
2022-08-19T16:34:49.949Z,30.4
2022-08-19T16:40:34.147Z,30.4
2022-08-19T16:46:17.847Z,30.4
2022-08-19T16:52:32.932Z,30.4
2022-08-19T16:58:18.638Z,30.4
2022-08-19T17:04:09.398Z,30.3
2022-08-19T17:09:59.461Z,30.3
2022-08-19T17:16:13.131Z,30.3
2022-08-19T17:21:53.622Z,30.3
2022-08-19T17:27:42.670Z,30.3
2022-08-19T17:33:14.778Z,30.3
2022-08-19T17:38:55.073Z,30.3
2022-08-19T17:44:55.000Z,30.3
2022-08-19T17:50:39.335Z,30.3
2022-08-19T17:56:22.327Z,30.3
2022-08-19T18:02:46.400Z,30.3
2022-08-19T18:08:17.653Z,30.3
2022-08-19T18:14:07.442Z,30.3
2022-08-19T18:19:57.196Z,30.3
2022-08-19T18:26:03.605Z,30.3
2022-08-19T18:31:40.990Z,30.3
2022-08-19T18:37:28.612Z,30.3
2022-08-19T18:42:54.181Z,30.3
2022-08-19T18:48:59.912Z,30.2
2022-08-19T18:54:38.328Z,30.3
2022-08-19T19:00:17.585Z,30.3
2022-08-19T19:05:56.938Z,30.3
2022-08-19T19:11:35.266Z,30.2
2022-08-19T19:17:36.539Z,30.3
2022-08-19T19:23:14.586Z,30.2
2022-08-19T19:29:20.379Z,30.2
2022-08-19T19:35:19.062Z,30.1
2022-08-19T19:41:09.083Z,30
2022-08-19T19:47:05.168Z,30
2022-08-19T19:53:20.933Z,30
2022-08-19T19:59:02.339Z,30
2022-08-19T20:04:53.369Z,29.9
2022-08-19T20:10:39.225Z,29.9
2022-08-19T20:16:16.880Z,29.9
2022-08-19T20:21:22.328Z,29.9
2022-08-19T20:27:47.668Z,29.9
2022-08-19T20:34:17.450Z,29.9
2022-08-19T20:40:00.016Z,29.9
2022-08-19T20:45:52.405Z,29.8
2022-08-19T20:51:45.188Z,29.8
2022-08-19T20:57:28.774Z,29.9
2022-08-19T21:03:12.209Z,29.8
2022-08-19T21:09:12.699Z,29.8
2022-08-19T21:15:05.217Z,29.8
2022-08-19T21:20:47.184Z,29.8
2022-08-19T21:26:43.447Z,29.8
2022-08-19T21:32:16.469Z,29.8
2022-08-19T21:38:14.887Z,29.8
2022-08-19T21:44:01.431Z,29.8
2022-08-19T21:49:12.023Z,29.8
2022-08-19T21:54:55.629Z,29.7
2022-08-19T22:00:35.425Z,29.8
2022-08-19T22:06:19.246Z,29.7
2022-08-19T22:12:02.449Z,29.7
2022-08-19T22:17:39.676Z,29.7
2022-08-19T22:23:40.469Z,29.7
2022-08-19T22:29:22.672Z,29.7
2022-08-19T22:35:35.986Z,29.7
2022-08-19T22:40:57.176Z,29.7
2022-08-19T22:46:20.442Z,29.7
2022-08-19T22:52:17.861Z,29.7
2022-08-19T22:57:38.875Z,29.7
2022-08-19T23:03:41.657Z,29.7
2022-08-19T23:09:25.389Z,29.6
2022-08-19T23:15:15.347Z,29.6
2022-08-19T23:21:01.334Z,29.7
2022-08-19T23:26:30.690Z,29.6
2022-08-19T23:32:10.073Z,29.6
2022-08-19T23:38:08.390Z,29.6
2022-08-19T23:43:54.782Z,29.6
2022-08-19T23:49:48.829Z,29.6
2022-08-19T23:55:49.443Z,29.6
